Time;durP1;ratioP1;P1;durP2;ratioP2;P2;SDS_P1;SDS_P2;PMS_P1;PMS_P2;Temp;Humidity;BMP_temperature;BMP_pressure;BME280_temperature;BME280_humidity;BME280_pressure;Samples;Min_cycle;Max_cycle;Signal;HPM_P1;HPM_P2
2021/11/24 00:02:21;;;;;;;30.40;12.00;;;;;;;4.71;87.37;101247.18;104848;1310;22605;-80
2021/11/24 00:04:52;;;;;;;27.90;11.10;;;;;;;4.71;87.36;101246.95;103972;1317;24227;-79
2021/11/24 00:07:23;;;;;;;25.40;11.80;;;;;;;4.71;87.31;101245.38;104130;1317;22748;-79
2021/11/24 00:09:54;;;;;;;26.60;11.10;;;;;;;4.70;87.34;101249.09;104347;1317;22732;-79
2021/11/24 00:12:25;;;;;;;25.50;10.60;;;;;;;4.70;87.31;101249.25;104407;1316;23341;-81
2021/11/24 00:14:57;;;;;;;24.60;10.50;;;;;;;4.70;87.31;101250.91;104373;1312;25379;-80
2021/11/24 00:17:28;;;;;;;25.40;10.80;;;;;;;4.70;87.37;101249.65;104387;1310;22680;-80
2021/11/24 00:19:59;;;;;;;26.80;10.80;;;;;;;4.70;87.36;101248.85;104397;1314;23301;-80
2021/11/24 00:22:30;;;;;;;25.20;10.30;;;;;;;4.70;87.36;101245.85;104302;1316;22511;-80
2021/11/24 00:25:01;;;;;;;28.60;11.90;;;;;;;4.71;87.38;101243.88;104434;1314;23086;-80
2021/11/24 00:27:31;;;;;;;27.80;12.30;;;;;;;4.71;87.40;101242.59;104423;1316;22551;-80
2021/11/24 00:30:05;;;;;;;28.20;12.10;;;;;;;4.73;87.41;101244.08;104408;1310;22705;-80
2021/11/24 00:32:36;;;;;;;33.30;13.80;;;;;;;4.74;87.38;101244.05;104693;1309;22643;-80
2021/11/24 00:35:13;;;;;;;34.50;13.50;;;;;;;4.75;87.39;101244.05;104781;1309;24326;-81
2021/11/24 00:37:44;;;;;;;30.50;13.30;;;;;;;4.78;87.32;101243.61;104558;1314;22590;-80
2021/11/24 00:40:15;;;;;;;29.20;13.60;;;;;;;4.80;87.37;101245.10;104388;1309;22613;-80
2021/11/24 00:42:48;;;;;;;35.00;15.10;;;;;;;4.81;87.31;101241.99;104328;1314;22608;-80
2021/11/24 00:45:22;;;;;;;34.90;16.40;;;;;;;4.82;87.22;101244.67;104350;1314;24117;-80
2021/11/24 00:47:55;;;;;;;38.30;19.10;;;;;;;4.82;87.17;101243.97;104310;1313;26594;-80
2021/11/24 00:50:28;;;;;;;40.10;19.40;;;;;;;4.80;87.20;101240.27;104346;1309;22590;-80
2021/11/24 00:52:58;;;;;;;33.40;15.10;;;;;;;4.80;87.16;101239.09;104358;1314;25300;-80
2021/11/24 00:55:30;;;;;;;32.80;15.10;;;;;;;4.80;87.15;101242.96;104468;1309;22633;-80
2021/11/24 00:58:01;;;;;;;29.20;13.30;;;;;;;4.80;87.15;101243.58;104748;1314;24336;-81
2021/11/24 01:00:34;;;;;;;29.20;12.20;;;;;;;4.80;87.17;101236.10;104511;1310;25369;-80
2021/11/24 01:03:05;;;;;;;25.00;10.60;;;;;;;4.79;87.12;101230.08;104420;1317;23872;-80
2021/11/24 01:05:36;;;;;;;26.60;12.10;;;;;;;4.80;87.14;101231.73;104473;1309;23317;-80
2021/11/24 01:08:07;;;;;;;32.40;13.10;;;;;;;4.81;87.15;101230.38;104372;1315;22573;-80
2021/11/24 01:10:41;;;;;;;23.00;10.60;;;;;;;4.82;87.09;101232.66;104460;1309;23209;-80
2021/11/24 01:13:19;;;;;;;25.70;10.30;;;;;;;4.81;87.03;101231.71;104332;1314;26585;-81
2021/11/24 01:15:53;;;;;;;24.20;8.20;;;;;;;4.80;87.06;101225.25;104315;1315;22590;-80
2021/11/24 01:18:24;;;;;;;20.80;9.10;;;;;;;4.80;87.12;101222.95;104414;1310;24281;-80
2021/11/24 01:20:56;;;;;;;24.60;8.70;;;;;;;4.81;87.08;101219.16;104474;1314;22529;-80
2021/11/24 01:23:27;;;;;;;22.20;7.70;;;;;;;4.82;87.14;101219.45;104394;1310;24283;-81
2021/11/24 01:25:58;;;;;;;24.10;8.10;;;;;;;4.82;87.10;101223.48;104433;1312;22579;-80
2021/11/24 01:28:30;;;;;;;20.70;7.30;;;;;;;4.83;87.11;101224.90;104393;1309;22574;-80
2021/11/24 01:31:01;;;;;;;20.90;7.60;;;;;;;4.83;87.05;101225.29;104375;1314;22620;-80
2021/11/24 01:33:34;;;;;;;22.40;8.80;;;;;;;4.81;87.04;101218.60;104407;1314;22596;-80
2021/11/24 01:36:06;;;;;;;26.20;10.20;;;;;;;4.81;87.04;101215.67;104452;1314;22548;-80
2021/11/24 01:38:42;;;;;;;23.60;8.50;;;;;;;4.81;87.03;101211.57;104440;1309;22627;-80
2021/11/24 01:41:13;;;;;;;24.40;9.10;;;;;;;4.80;86.97;101210.94;104344;1309;24178;-80
2021/11/24 01:43:44;;;;;;;25.80;9.10;;;;;;;4.80;86.99;101211.33;104432;1310;25253;-80
2021/11/24 01:46:14;;;;;;;24.00;7.80;;;;;;;4.81;86.94;101211.25;104516;1314;23987;-81
2021/11/24 01:48:47;;;;;;;29.40;9.80;;;;;;;4.81;87.05;101210.38;104400;1314;24285;-80
2021/11/24 01:51:18;;;;;;;23.80;9.30;;;;;;;4.81;86.97;101211.64;104303;1310;23169;-81
2021/11/24 01:53:53;;;;;;;27.90;9.60;;;;;;;4.81;87.02;101208.63;104478;1314;22598;-80
2021/11/24 01:56:25;;;;;;;24.10;10.50;;;;;;;4.83;87.09;101207.11;104459;1309;22673;-80
2021/11/24 01:58:57;;;;;;;23.80;9.30;;;;;;;4.85;87.03;101201.15;104470;1309;23345;-80
2021/11/24 02:01:28;;;;;;;21.80;8.50;;;;;;;4.87;87.03;101200.33;104479;1309;22797;-80
2021/11/24 02:03:58;;;;;;;25.40;9.60;;;;;;;4.89;86.96;101199.97;104335;1319;22574;-81
2021/11/24 02:06:29;;;;;;;21.50;8.30;;;;;;;4.92;87.00;101199.47;104430;1314;22580;-80
2021/11/24 02:09:01;;;;;;;21.80;8.20;;;;;;;4.94;86.92;101198.09;104396;1309;25248;-81
2021/11/24 02:11:35;;;;;;;23.50;8.40;;;;;;;4.96;86.87;101192.45;104425;1316;25373;-81
2021/11/24 02:14:07;;;;;;;22.60;7.90;;;;;;;4.96;86.81;101192.92;104394;1309;22672;-81
2021/11/24 02:16:45;;;;;;;22.90;8.00;;;;;;;4.95;86.76;101188.04;104425;1309;25382;-80
2021/11/24 02:19:17;;;;;;;21.60;7.30;;;;;;;4.94;86.80;101191.55;104425;1309;23955;-81
2021/11/24 02:21:53;;;;;;;20.50;6.50;;;;;;;4.94;86.81;101193.45;104267;1317;24318;-81
2021/11/24 02:24:27;;;;;;;21.10;7.10;;;;;;;4.92;86.74;101195.05;104408;1309;22590;-81
2021/11/24 02:27:02;;;;;;;21.20;7.30;;;;;;;4.92;86.79;101196.55;104412;1310;22930;-81
2021/11/24 02:29:35;;;;;;;25.10;7.80;;;;;;;4.94;86.84;101196.28;104427;1309;24282;-81
2021/11/24 02:32:07;;;;;;;21.00;7.40;;;;;;;4.96;86.86;101194.36;104403;1310;24165;-81
2021/11/24 02:34:38;;;;;;;20.40;6.90;;;;;;;4.98;86.88;101191.64;104444;1310;23940;-81
2021/11/24 02:37:11;;;;;;;20.00;7.00;;;;;;;4.99;86.84;101191.45;104350;1309;22527;-80
2021/11/24 02:39:42;;;;;;;21.30;7.20;;;;;;;5.00;86.89;101184.73;104396;1312;22786;-80
2021/11/24 02:42:13;;;;;;;21.30;7.20;;;;;;;5.01;86.83;101178.86;104446;1312;22661;-80
2021/11/24 02:44:43;;;;;;;21.80;8.20;;;;;;;5.02;86.89;101174.49;104434;1309;22503;-80
2021/11/24 02:47:18;;;;;;;19.00;6.70;;;;;;;5.03;86.89;101175.35;104418;1309;24214;-81
2021/11/24 02:49:51;;;;;;;21.10;7.30;;;;;;;5.04;86.89;101170.13;104521;1314;25608;-81
2021/11/24 02:52:25;;;;;;;20.60;7.10;;;;;;;5.05;86.89;101167.90;104431;1314;22574;-81
2021/11/24 02:54:59;;;;;;;20.90;8.10;;;;;;;5.05;86.89;101164.25;104416;1316;26514;-81
2021/11/24 02:57:35;;;;;;;21.20;8.00;;;;;;;5.03;86.87;101165.85;104449;1314;22570;-80
2021/11/24 03:00:12;;;;;;;18.50;6.70;;;;;;;5.03;86.94;101161.82;104388;1312;22574;-81
2021/11/24 03:02:47;;;;;;;20.00;6.70;;;;;;;5.04;86.93;101159.99;104408;1309;23073;-81
2021/11/24 03:05:21;;;;;;;22.10;8.30;;;;;;;5.04;86.94;101163.09;104636;1309;22574;-80
2021/11/24 03:07:54;;;;;;;18.80;7.40;;;;;;;5.05;86.95;101156.52;104544;1316;24311;-81
2021/11/24 03:10:25;;;;;;;21.80;8.20;;;;;;;5.04;86.91;101153.98;104791;1311;22598;-81
2021/11/24 03:12:56;;;;;;;21.20;7.50;;;;;;;5.05;86.87;101158.08;104434;1317;22790;-81
2021/11/24 03:15:27;;;;;;;22.20;7.40;;;;;;;5.06;86.82;101155.05;104420;1316;25868;-80
2021/11/24 03:17:59;;;;;;;21.80;7.20;;;;;;;5.05;86.85;101157.45;104475;1310;24218;-80
2021/11/24 03:20:30;;;;;;;20.60;7.40;;;;;;;5.04;86.78;101156.36;104373;1312;22587;-80
2021/11/24 03:23:03;;;;;;;19.70;6.70;;;;;;;5.02;86.79;101153.94;104331;1314;23875;-81
2021/11/24 03:25:38;;;;;;;18.80;6.70;;;;;;;5.02;86.77;101150.94;104375;1313;22573;-81
2021/11/24 03:28:11;;;;;;;20.60;7.50;;;;;;;5.03;86.74;101147.66;104466;1317;22590;-81
2021/11/24 03:30:41;;;;;;;18.80;6.80;;;;;;;5.03;86.78;101151.64;104679;1312;22612;-81
2021/11/24 03:33:14;;;;;;;21.50;7.10;;;;;;;5.03;86.74;101153.30;104578;1309;22652;-81
2021/11/24 03:35:45;;;;;;;21.40;7.20;;;;;;;5.04;86.86;101156.05;104447;1312;22574;-80
2021/11/24 03:38:15;;;;;;;20.30;6.80;;;;;;;5.05;86.82;101150.02;104304;1313;156183;-81
2021/11/24 03:40:46;;;;;;;19.20;6.60;;;;;;;5.05;86.81;101147.48;104395;1309;22576;-80
2021/11/24 03:43:17;;;;;;;19.20;7.10;;;;;;;5.05;86.68;101151.92;104442;1310;22703;-80
2021/11/24 03:45:48;;;;;;;19.80;6.80;;;;;;;5.05;86.64;101153.84;104360;1314;22674;-81
2021/11/24 03:48:22;;;;;;;24.20;9.10;;;;;;;5.03;86.65;101153.29;104442;1317;22555;-80
2021/11/24 03:50:55;;;;;;;21.70;8.20;;;;;;;5.00;86.62;101148.27;104439;1312;22577;-81
2021/11/24 03:53:26;;;;;;;22.60;8.60;;;;;;;4.98;86.54;101146.50;104437;1317;24215;-81
2021/11/24 03:55:57;;;;;;;22.60;7.20;;;;;;;4.97;86.61;101139.30;104426;1314;22558;-81
2021/11/24 03:58:32;;;;;;;20.10;6.00;;;;;;;4.97;86.51;101135.11;104371;1309;25414;-81
2021/11/24 04:01:04;;;;;;;23.00;8.20;;;;;;;4.93;86.50;101124.73;104290;1316;22577;-81
2021/11/24 04:03:37;;;;;;;22.70;7.50;;;;;;;4.91;86.39;101127.54;104352;1316;22589;-82
2021/11/24 04:06:08;;;;;;;25.70;8.60;;;;;;;4.91;86.42;101125.88;104375;1310;25373;-81
2021/11/24 04:08:40;;;;;;;24.20;9.10;;;;;;;4.90;86.30;101116.74;104276;1309;22589;-81
2021/11/24 04:11:13;;;;;;;24.00;8.50;;;;;;;4.89;86.29;101117.54;104331;1309;22645;-80
2021/11/24 04:13:44;;;;;;;25.60;8.80;;;;;;;4.89;86.24;101126.94;104375;1313;22569;-80
2021/11/24 04:16:15;;;;;;;25.60;8.90;;;;;;;4.88;86.18;101129.33;104570;1317;25417;-81
2021/11/24 04:18:47;;;;;;;25.00;9.20;;;;;;;4.87;86.10;101131.08;104263;1299;22576;-78
2021/11/24 04:21:19;;;;;;;25.40;9.80;;;;;;;4.87;86.19;101133.77;103664;1316;22831;-79
2021/11/24 04:23:52;;;;;;;26.10;9.20;;;;;;;4.87;86.27;101137.89;103587;1313;22606;-78
2021/11/24 04:26:23;;;;;;;29.10;10.40;;;;;;;4.88;86.26;101141.73;103611;1314;22646;-78
2021/11/24 04:28:54;;;;;;;27.10;10.70;;;;;;;4.90;86.17;101141.95;103566;1313;24332;-78
2021/11/24 04:31:26;;;;;;;26.20;10.50;;;;;;;4.91;86.33;101136.16;103711;1315;22734;-79
2021/11/24 04:33:58;;;;;;;32.50;11.70;;;;;;;4.92;86.37;101131.16;103505;1319;22605;-78
2021/11/24 04:36:29;;;;;;;29.40;10.80;;;;;;;4.92;86.21;101128.48;103541;1313;22573;-79
2021/11/24 04:38:59;;;;;;;28.00;11.20;;;;;;;4.92;86.28;101126.89;103568;1313;22615;-78
2021/11/24 04:41:30;;;;;;;28.30;11.00;;;;;;;4.94;86.36;101128.45;103559;1314;23594;-78
2021/11/24 04:44:02;;;;;;;23.70;10.00;;;;;;;4.97;86.23;101130.77;103507;1313;22784;-79
2021/11/24 04:46:34;;;;;;;26.60;10.50;;;;;;;4.97;86.27;101127.53;103457;1313;24333;-78
2021/11/24 04:49:05;;;;;;;29.10;10.80;;;;;;;4.97;86.25;101128.48;103531;1320;22583;-78
2021/11/24 04:51:36;;;;;;;32.20;10.80;;;;;;;4.97;86.23;101122.39;103460;1318;24057;-78
2021/11/24 04:54:07;;;;;;;28.00;10.90;;;;;;;4.96;86.14;101118.85;103377;1314;22590;-78
2021/11/24 04:56:37;;;;;;;27.00;10.10;;;;;;;4.96;86.14;101118.39;103436;1305;22596;-78
2021/11/24 04:59:09;;;;;;;28.90;10.30;;;;;;;4.96;86.11;101115.93;103412;1313;22811;-78
2021/11/24 05:01:39;;;;;;;26.80;11.10;;;;;;;4.96;85.99;101114.81;103496;1314;25975;-78
2021/11/24 05:04:10;;;;;;;29.70;10.90;;;;;;;4.94;85.81;101112.71;103591;1313;27513;-79
2021/11/24 05:06:41;;;;;;;26.70;11.10;;;;;;;4.93;85.71;101110.03;103471;1317;25391;-78
2021/11/24 05:09:12;;;;;;;27.60;10.10;;;;;;;4.92;85.62;101107.13;103606;1313;27673;-80
2021/11/24 05:11:44;;;;;;;26.40;11.20;;;;;;;4.91;85.61;101104.86;103422;1313;24243;-79
2021/11/24 05:14:18;;;;;;;28.20;10.40;;;;;;;4.90;85.55;101102.42;103394;1313;22580;-79
2021/11/24 05:16:50;;;;;;;26.20;10.40;;;;;;;4.89;85.43;101100.39;103444;1318;22629;-79
2021/11/24 05:19:23;;;;;;;24.40;9.80;;;;;;;4.86;85.47;101104.53;106387;1313;22527;-79
2021/11/24 05:21:55;;;;;;;30.00;11.80;;;;;;;4.85;85.46;101107.34;106481;1320;22444;-78
2021/11/24 05:24:26;;;;;;;29.50;11.70;;;;;;;4.84;85.41;101106.32;106497;1313;22521;-78
2021/11/24 05:26:57;;;;;;;34.60;12.10;;;;;;;4.83;85.53;101107.91;106413;1313;23308;-78
2021/11/24 05:29:28;;;;;;;32.10;12.80;;;;;;;4.83;85.53;101109.73;106493;1313;23172;-79
2021/11/24 05:31:59;;;;;;;30.50;13.00;;;;;;;4.83;85.49;101112.10;106480;1314;23398;-78
2021/11/24 05:34:30;;;;;;;27.80;12.30;;;;;;;4.83;85.52;101111.78;106477;1317;23286;-79
2021/11/24 05:37:02;;;;;;;32.60;13.80;;;;;;;4.83;85.48;101110.92;106424;1320;22478;-78
2021/11/24 05:39:34;;;;;;;38.00;15.00;;;;;;;4.81;85.45;101110.32;106466;1319;22355;-78
2021/11/24 05:42:08;;;;;;;33.00;12.80;;;;;;;4.80;85.37;101109.45;106333;1313;22297;-78
2021/11/24 05:44:42;;;;;;;34.30;14.50;;;;;;;4.79;85.30;101111.22;106460;1319;22408;-79
2021/11/24 05:47:49;;;;;;;41.10;15.40;;;;;;;4.78;85.33;101109.48;106430;1314;22305;-78
2021/11/24 05:50:04;;;;;;;35.50;14.80;;;;;;;4.75;85.23;101108.09;106445;1314;24305;-79
2021/11/24 05:52:36;;;;;;;39.50;14.70;;;;;;;4.73;85.28;101107.27;106489;1313;22654;-78
2021/11/24 05:55:08;;;;;;;35.60;14.30;;;;;;;4.72;85.40;101103.27;105582;1321;23102;-78
2021/11/24 05:57:39;;;;;;;31.30;13.90;;;;;;;4.72;85.35;101099.39;103457;1314;25278;-77
2021/11/24 06:00:13;;;;;;;33.80;13.80;;;;;;;4.71;85.37;101102.39;103490;1313;25353;-78
2021/11/24 06:02:45;;;;;;;31.30;13.40;;;;;;;4.70;85.22;101103.29;103602;1314;22875;-79
2021/11/24 06:05:16;;;;;;;31.90;13.10;;;;;;;4.70;85.12;101107.16;103388;1313;22566;-80
2021/11/24 06:07:49;;;;;;;33.00;12.50;;;;;;;4.65;85.06;101108.66;103657;1314;22628;-79
2021/11/24 06:10:20;;;;;;;35.70;12.20;;;;;;;4.59;84.93;101107.48;103688;1313;24275;-79
2021/11/24 06:12:51;;;;;;;30.80;12.20;;;;;;;4.55;85.02;101109.77;103553;1317;22659;-79
2021/11/24 06:15:22;;;;;;;29.30;11.40;;;;;;;4.52;85.08;101119.05;103734;1313;22579;-79
2021/11/24 06:17:53;;;;;;;29.10;11.90;;;;;;;4.48;85.12;101116.73;103812;1313;22529;-79
2021/11/24 06:20:24;;;;;;;32.20;12.60;;;;;;;4.46;85.16;101117.71;103808;1315;22585;-79
2021/11/24 06:22:55;;;;;;;31.80;12.60;;;;;;;4.45;85.17;101116.84;103783;1315;22632;-80
2021/11/24 06:25:26;;;;;;;32.60;12.30;;;;;;;4.46;85.20;101117.16;103585;1313;22658;-79
2021/11/24 06:27:56;;;;;;;29.20;11.60;;;;;;;4.45;85.15;101117.16;103661;1313;26699;-80
2021/11/24 06:30:28;;;;;;;29.10;10.80;;;;;;;4.43;85.15;101115.38;103745;1313;25367;-79
2021/11/24 06:32:58;;;;;;;28.60;11.10;;;;;;;4.41;85.05;101118.32;103672;1317;22588;-80
2021/11/24 06:35:29;;;;;;;28.60;10.90;;;;;;;4.40;85.04;101120.48;103767;1314;22765;-79
2021/11/24 06:38:00;;;;;;;30.40;10.40;;;;;;;4.37;85.14;101118.14;103677;1313;22580;-80
2021/11/24 06:40:31;;;;;;;30.80;10.00;;;;;;;4.34;85.21;101120.00;103658;1315;22605;-79
2021/11/24 06:43:02;;;;;;;26.80;9.80;;;;;;;4.33;85.39;101120.41;103687;1320;22597;-79
2021/11/24 06:45:33;;;;;;;25.50;9.30;;;;;;;4.32;85.61;101122.40;103545;1319;25815;-79
2021/11/24 06:48:04;;;;;;;22.30;8.30;;;;;;;4.30;85.73;101117.77;103408;1313;22603;-79
2021/11/24 06:50:35;;;;;;;23.30;7.40;;;;;;;4.30;85.83;101122.35;103463;1317;22647;-78
2021/11/24 06:53:06;;;;;;;23.90;8.70;;;;;;;4.30;85.99;101128.35;103382;1314;22570;-79
2021/11/24 06:55:37;;;;;;;24.80;9.30;;;;;;;4.31;86.13;101129.45;103941;1318;22583;-79
2021/11/24 06:58:07;;;;;;;26.10;8.20;;;;;;;4.32;86.18;101129.98;104126;1319;23841;-79
2021/11/24 07:00:38;;;;;;;23.20;8.00;;;;;;;4.34;86.16;101133.42;104111;1318;22637;-80
2021/11/24 07:03:09;;;;;;;24.50;8.30;;;;;;;4.36;86.27;101133.09;104383;1313;23036;-79
2021/11/24 07:05:40;;;;;;;28.20;9.60;;;;;;;4.37;86.17;101133.85;104363;1318;22602;-80
2021/11/24 07:08:11;;;;;;;26.90;9.00;;;;;;;4.38;86.28;101133.69;104315;1313;22710;-79
2021/11/24 07:10:42;;;;;;;24.20;7.90;;;;;;;4.39;86.18;101133.43;104307;1313;24225;-79
2021/11/24 07:13:13;;;;;;;25.70;8.30;;;;;;;4.41;86.30;101133.25;104318;1318;22594;-79
2021/11/24 07:15:44;;;;;;;24.70;8.60;;;;;;;4.43;86.26;101130.70;104433;1320;22575;-79
2021/11/24 07:18:15;;;;;;;27.10;10.20;;;;;;;4.45;86.32;101131.31;104246;1313;25261;-79
2021/11/24 07:20:48;;;;;;;29.00;11.10;;;;;;;4.48;86.31;101136.25;104770;1313;22772;-79
2021/11/24 07:23:19;;;;;;;27.90;10.60;;;;;;;4.49;86.39;101136.06;105179;1313;22617;-79
2021/11/24 07:25:50;;;;;;;26.70;9.90;;;;;;;4.50;86.36;101141.35;104483;1313;23780;-79
2021/11/24 07:28:21;;;;;;;26.50;10.30;;;;;;;4.53;86.32;101140.67;104434;1313;23025;-80
2021/11/24 07:30:52;;;;;;;25.20;9.30;;;;;;;4.55;86.45;101138.83;104811;1313;22598;-79
2021/11/24 07:33:23;;;;;;;28.00;10.10;;;;;;;4.56;86.41;101138.65;104375;1313;26007;-79
2021/11/24 07:35:55;;;;;;;27.70;11.20;;;;;;;4.61;86.37;101136.46;104885;1313;22686;-80
2021/11/24 07:38:26;;;;;;;32.60;11.10;;;;;;;4.63;86.31;101128.68;104780;1313;22608;-80
2021/11/24 07:40:56;;;;;;;28.60;10.30;;;;;;;4.66;86.37;101128.47;104499;1313;22608;-79
2021/11/24 07:43:28;;;;;;;29.90;10.80;;;;;;;4.70;86.36;101132.30;104621;1313;22611;-79
2021/11/24 07:45:59;;;;;;;28.90;10.60;;;;;;;4.73;86.50;101128.38;103961;1318;22586;-79
2021/11/24 07:48:30;;;;;;;25.30;10.00;;;;;;;4.77;86.51;101128.09;103836;1314;22797;-79
2021/11/24 07:51:01;;;;;;;31.50;12.40;;;;;;;4.80;86.51;101127.56;103814;1319;23054;-79
2021/11/24 07:53:32;;;;;;;31.20;12.20;;;;;;;4.82;86.40;101125.02;103855;1313;24263;-79
2021/11/24 07:56:03;;;;;;;29.90;11.60;;;;;;;4.83;86.42;101124.20;103746;1314;24443;-80
2021/11/24 07:58:33;;;;;;;37.50;12.90;;;;;;;4.85;86.45;101124.56;103851;1313;22635;-80
2021/11/24 08:01:04;;;;;;;31.10;11.40;;;;;;;4.87;86.42;101124.67;103963;1317;25464;-79
2021/11/24 08:03:35;;;;;;;27.40;10.60;;;;;;;4.89;86.54;101128.21;103824;1314;25389;-79
2021/11/24 08:06:07;;;;;;;26.40;9.70;;;;;;;4.91;86.54;101122.89;103751;1314;25264;-79
2021/11/24 08:08:38;;;;;;;24.80;9.10;;;;;;;4.93;86.60;101126.10;103799;1315;22580;-79
2021/11/24 08:11:09;;;;;;;23.20;7.70;;;;;;;4.97;86.63;101118.28;103801;1314;24247;-79
2021/11/24 08:13:40;;;;;;;21.20;8.40;;;;;;;4.99;86.69;101119.98;103869;1313;22568;-78
2021/11/24 08:16:12;;;;;;;22.60;7.50;;;;;;;5.02;86.53;101119.54;103819;1313;22580;-80
2021/11/24 08:18:43;;;;;;;20.70;7.00;;;;;;;5.06;86.49;101119.57;103882;1314;22655;-79
2021/11/24 08:21:13;;;;;;;26.00;8.60;;;;;;;5.09;86.42;101117.85;103772;1314;24251;-79
2021/11/24 08:23:44;;;;;;;20.20;6.60;;;;;;;5.12;86.45;101121.13;103807;1313;22600;-79
2021/11/24 08:26:16;;;;;;;20.60;6.90;;;;;;;5.15;86.33;101125.02;103845;1317;22853;-79
2021/11/24 08:28:47;;;;;;;18.80;6.50;;;;;;;5.17;86.17;101123.49;103977;1313;22564;-79
2021/11/24 08:31:18;;;;;;;20.60;6.10;;;;;;;5.20;86.40;101127.31;104150;1313;22623;-79
2021/11/24 08:33:49;;;;;;;19.80;6.30;;;;;;;5.23;86.15;101122.34;104197;1318;25414;-79
2021/11/24 08:36:19;;;;;;;20.40;5.90;;;;;;;5.25;86.19;101125.40;104107;1317;26066;-80
2021/11/24 08:38:50;;;;;;;20.00;6.00;;;;;;;5.27;86.12;101124.98;104262;1314;22594;-79
2021/11/24 08:41:22;;;;;;;21.00;7.10;;;;;;;5.30;86.22;101120.80;104100;1313;22663;-80
2021/11/24 08:43:53;;;;;;;21.50;7.00;;;;;;;5.34;86.16;101122.40;104102;1313;22659;-80
2021/11/24 08:46:24;;;;;;;23.80;7.40;;;;;;;5.37;86.19;101118.16;104276;1313;25977;-79
2021/11/24 08:48:57;;;;;;;22.00;7.50;;;;;;;5.40;86.14;101122.93;104503;1319;22628;-81
2021/11/24 08:51:27;;;;;;;19.50;6.50;;;;;;;5.44;86.03;101116.77;104909;1318;23802;-81
2021/11/24 08:53:59;;;;;;;21.60;7.00;;;;;;;5.47;86.08;101119.10;104463;1313;22591;-80
2021/11/24 08:56:34;;;;;;;22.00;6.60;;;;;;;5.49;85.91;101118.56;104487;1313;25246;-80
2021/11/24 08:59:07;;;;;;;20.70;6.10;;;;;;;5.52;85.92;101117.42;104867;1313;23778;-80
2021/11/24 09:01:39;;;;;;;16.50;5.90;;;;;;;5.55;85.99;101115.92;104536;1317;22622;-80
2021/11/24 09:04:09;;;;;;;18.30;6.80;;;;;;;5.58;85.84;101108.91;104558;1313;22899;-80
2021/11/24 09:06:41;;;;;;;22.40;6.90;;;;;;;5.62;85.90;101116.58;104897;1314;22622;-80
2021/11/24 09:09:12;;;;;;;23.20;7.30;;;;;;;5.67;86.07;101112.13;104968;1313;25327;-80
2021/11/24 09:11:43;;;;;;;19.40;7.30;;;;;;;5.75;86.09;101113.51;104970;1313;24228;-80
2021/11/24 09:14:14;;;;;;;19.90;7.40;;;;;;;5.80;85.95;101113.73;104456;1313;22601;-80
2021/11/24 09:16:45;;;;;;;21.40;7.60;;;;;;;5.85;85.81;101109.85;104444;1315;25948;-80
2021/11/24 09:19:16;;;;;;;17.10;6.50;;;;;;;5.88;85.65;101106.70;104871;1315;23812;-80
2021/11/24 09:21:47;;;;;;;21.80;7.90;;;;;;;5.93;85.67;101108.89;104819;1317;22612;-80
2021/11/24 09:24:22;;;;;;;18.20;7.50;;;;;;;5.98;85.48;101108.58;104797;1313;22587;-80
2021/11/24 09:26:57;;;;;;;19.90;5.90;;;;;;;6.02;85.44;101110.68;104903;1313;23749;-80
2021/11/24 09:29:28;;;;;;;21.10;6.50;;;;;;;6.06;85.35;101109.73;104875;1314;22676;-80
2021/11/24 09:32:04;;;;;;;21.80;5.90;;;;;;;6.10;85.14;101104.12;104365;1313;25263;-80
2021/11/24 09:34:35;;;;;;;17.40;5.30;;;;;;;6.13;85.00;101106.51;104871;1313;22636;-81
2021/11/24 09:37:07;;;;;;;16.20;5.30;;;;;;;6.15;84.90;101109.23;104901;1313;22636;-81
2021/11/24 09:39:37;;;;;;;17.50;5.00;;;;;;;6.18;84.97;101109.89;104848;1317;25279;-81
2021/11/24 09:42:11;;;;;;;15.60;4.50;;;;;;;6.19;84.69;101113.13;104857;1312;23700;-80
2021/11/24 09:44:48;;;;;;;16.30;4.50;;;;;;;6.19;84.60;101105.66;104809;1314;22837;-80
2021/11/24 09:47:20;;;;;;;18.20;4.90;;;;;;;6.19;84.48;101105.27;104666;1314;26016;-80
2021/11/24 09:49:56;;;;;;;16.10;5.00;;;;;;;6.17;84.38;101103.87;104586;1314;25276;-79
2021/11/24 09:52:28;;;;;;;16.60;5.80;;;;;;;6.15;84.30;101100.05;104637;1313;22655;-80
2021/11/24 09:54:59;;;;;;;17.00;5.00;;;;;;;6.14;84.41;101102.13;104615;1317;25458;-80
2021/11/24 09:57:31;;;;;;;19.60;5.20;;;;;;;6.14;84.44;101098.48;104655;1315;23965;-80
2021/11/24 10:00:01;;;;;;;17.30;4.90;;;;;;;6.13;84.19;101093.67;104302;1313;22616;-80
2021/11/24 10:02:33;;;;;;;18.70;5.40;;;;;;;6.12;84.26;101092.74;104226;1313;22618;-80
2021/11/24 10:05:06;;;;;;;16.50;4.60;;;;;;;6.14;84.52;101091.52;104293;1313;25278;-80
2021/11/24 10:07:37;;;;;;;17.30;5.10;;;;;;;6.15;84.30;101092.92;104623;1313;24045;-80
2021/11/24 10:10:09;;;;;;;18.20;5.70;;;;;;;6.16;84.15;101084.88;104341;1319;22575;-81
2021/11/24 10:12:40;;;;;;;17.20;5.80;;;;;;;6.18;84.20;101084.21;104336;1314;24348;-80
2021/11/24 10:15:12;;;;;;;14.80;5.00;;;;;;;6.21;84.33;101079.81;104320;1319;22560;-80
2021/11/24 10:17:43;;;;;;;16.60;5.10;;;;;;;6.24;84.11;101076.95;104420;1314;23362;-80
2021/11/24 10:20:15;;;;;;;15.60;5.80;;;;;;;6.26;84.07;101075.64;104590;1312;24235;-80
2021/11/24 10:22:46;;;;;;;16.00;5.60;;;;;;;6.28;84.22;101076.00;105153;1313;23148;-80
2021/11/24 10:25:18;;;;;;;13.00;4.30;;;;;;;6.32;83.98;101071.89;105130;1312;22561;-81
2021/11/24 10:27:51;;;;;;;18.80;4.70;;;;;;;6.34;84.05;101066.98;104996;1316;25256;-80
2021/11/24 10:30:30;;;;;;;13.50;4.60;;;;;;;6.38;83.87;101061.92;105066;1312;22627;-80
2021/11/24 10:33:17;;;;;;;15.40;4.40;;;;;;;6.41;83.85;101062.38;105090;1318;22601;-80
2021/11/24 10:36:05;;;;;;;20.80;5.30;;;;;;;6.45;83.80;101063.48;104908;1312;25425;-80
2021/11/24 10:38:46;;;;;;;15.20;4.90;;;;;;;6.49;83.82;101056.20;105070;1317;22632;-81
2021/11/24 10:41:30;;;;;;;17.00;4.40;;;;;;;6.53;83.77;101050.95;104883;1316;23223;-81
2021/11/24 10:44:01;;;;;;;16.90;4.40;;;;;;;6.57;83.52;101045.86;104709;1313;25566;-81
2021/11/24 10:46:34;;;;;;;14.00;4.50;;;;;;;6.60;83.36;101042.77;104875;1312;22608;-81
2021/11/24 10:49:09;;;;;;;17.60;4.60;;;;;;;6.61;83.21;101042.66;104824;1319;23589;-80
2021/11/24 10:51:43;;;;;;;17.30;4.80;;;;;;;6.62;83.15;101039.39;104783;1317;22648;-81
2021/11/24 10:54:17;;;;;;;16.20;4.60;;;;;;;6.63;83.22;101037.31;104933;1315;25995;-81
2021/11/24 10:57:07;;;;;;;16.30;4.90;;;;;;;6.64;83.07;101037.92;104867;1312;22753;-80
2021/11/24 10:59:43;;;;;;;13.40;3.40;;;;;;;6.66;83.05;101034.55;104545;1312;22641;-80
2021/11/24 11:02:34;;;;;;;16.40;4.80;;;;;;;6.67;82.96;101033.82;104811;1312;22780;-80
2021/11/24 11:05:10;;;;;;;12.50;3.80;;;;;;;6.66;82.86;101034.16;105054;1313;22605;-80
2021/11/24 11:07:44;;;;;;;14.40;4.30;;;;;;;6.65;83.01;101034.17;105021;1313;22644;-81
2021/11/24 11:10:18;;;;;;;14.80;4.40;;;;;;;6.66;83.05;101027.42;105217;1316;22584;-80
2021/11/24 11:12:52;;;;;;;17.10;5.00;;;;;;;6.66;83.01;101022.41;105174;1317;24265;-80
2021/11/24 11:15:30;;;;;;;17.20;4.50;;;;;;;6.66;82.85;101021.48;105184;1316;22566;-80
2021/11/24 11:18:11;;;;;;;16.00;4.90;;;;;;;6.65;82.98;101018.55;105184;1312;24071;-80
2021/11/24 11:20:46;;;;;;;15.20;4.90;;;;;;;6.66;83.15;101018.06;105304;1316;22911;-81
2021/11/24 11:23:22;;;;;;;20.60;6.60;;;;;;;6.67;83.20;101016.20;105306;1312;22628;-81
2021/11/24 11:25:56;;;;;;;20.60;5.70;;;;;;;6.68;83.00;101014.13;105159;1312;22703;-80
2021/11/24 11:28:29;;;;;;;17.40;5.80;;;;;;;6.70;83.09;101019.30;104706;1317;22614;-79
2021/11/24 11:31:02;;;;;;;18.50;5.70;;;;;;;6.71;83.13;101017.61;104709;1316;22681;-80
2021/11/24 11:33:36;;;;;;;17.90;5.50;;;;;;;6.73;83.08;101009.48;104923;1312;25952;-80
2021/11/24 11:36:09;;;;;;;19.30;5.80;;;;;;;6.74;83.02;101008.40;104621;1312;22685;-80
2021/11/24 11:38:43;;;;;;;22.00;7.30;;;;;;;6.76;82.93;101005.45;104156;1312;280190;-79